Time;durP1;ratioP1;P1;durP2;ratioP2;P2;SDS_P1;SDS_P2;PMS_P1;PMS_P2;Temp;Humidity;BMP_temperature;BMP_pressure;BME280_temperature;BME280_humidity;BME280_pressure;Samples;Min_cycle;Max_cycle;Signal;HPM_P1;HPM_P2
2023/10/07 00:00:49;;;;;;;0.00;0.00;;;12.00;99.90;;;;;;4962182;28;20258;-80
2023/10/07 00:03:17;;;;;;;0.10;0.10;;;11.90;99.90;;;;;;4962998;28;20283;-80
2023/10/07 00:05:46;;;;;;;0.10;0.10;;;11.70;99.90;;;;;;4963010;28;20260;-79
2023/10/07 00:08:12;;;;;;;0.10;0.10;;;11.80;99.90;;;;;;4963758;28;20830;-79
2023/10/07 00:10:40;;;;;;;0.00;0.00;;;11.70;99.90;;;;;;4961758;28;20193;-79
2023/10/07 00:13:09;;;;;;;0.10;0.10;;;11.50;99.90;;;;;;4962335;28;20743;-79
2023/10/07 00:15:42;;;;;;;0.10;0.10;;;11.60;99.90;;;;;;4962749;28;20732;-80
2023/10/07 00:20:39;;;;;;;0.10;0.10;;;11.70;99.90;;;;;;4964661;28;20239;-79
2023/10/07 00:23:06;;;;;;;0.00;0.00;;;11.80;99.90;;;;;;4961481;28;20231;-80
2023/10/07 00:25:32;;;;;;;0.03;0.03;;;11.80;99.90;;;;;;4964072;28;20680;-79
2023/10/07 00:27:58;;;;;;;0.10;0.10;;;11.80;99.90;;;;;;4962861;28;20192;-80
2023/10/07 00:30:27;;;;;;;0.10;0.10;;;11.80;99.90;;;;;;4961543;28;20676;-80
2023/10/07 00:32:55;;;;;;;0.10;0.10;;;11.80;99.90;;;;;;4962745;28;20204;-80
2023/10/07 00:35:27;;;;;;;0.10;0.10;;;11.80;99.90;;;;;;4960568;28;20272;-80
2023/10/07 00:37:53;;;;;;;0.10;0.10;;;11.60;99.90;;;;;;4962234;28;20215;-80
2023/10/07 00:40:52;;;;;;;0.10;0.10;;;11.30;99.90;;;;;;4961238;28;20205;-80
2023/10/07 00:43:24;;;;;;;0.10;0.10;;;11.00;99.90;;;;;;4963272;28;20236;-80
2023/10/07 00:45:54;;;;;;;0.10;0.10;;;11.00;99.90;;;;;;4962988;28;20199;-79
2023/10/07 00:48:21;;;;;;;0.10;0.10;;;10.90;99.90;;;;;;4962607;28;20185;-79
2023/10/07 00:50:47;;;;;;;0.10;0.10;;;11.00;99.90;;;;;;4962320;28;20275;-80
2023/10/07 00:53:13;;;;;;;0.00;0.00;;;11.10;99.90;;;;;;4963845;28;20205;-80
2023/10/07 00:55:41;;;;;;;0.10;0.10;;;11.30;99.90;;;;;;4963646;28;20251;-80
2023/10/07 00:58:17;;;;;;;0.03;0.03;;;11.40;99.90;;;;;;4965442;28;20695;-79
2023/10/07 01:00:47;;;;;;;0.10;0.10;;;11.40;99.90;;;;;;4963597;28;20694;-79
2023/10/07 01:08:41;;;;;;;0.00;0.00;;;11.30;99.90;;;;;;4963408;28;20178;-79
2023/10/07 01:11:30;;;;;;;0.10;0.10;;;11.00;99.90;;;;;;4963328;28;20172;-79
2023/10/07 01:14:00;;;;;;;0.00;0.00;;;10.90;99.90;;;;;;4963861;28;20217;-79
2023/10/07 01:16:42;;;;;;;0.10;0.10;;;11.00;99.90;;;;;;4963436;28;20166;-79
2023/10/07 01:21:55;;;;;;;0.10;0.10;;;11.10;99.90;;;;;;4962677;28;20678;-80
2023/10/07 01:24:43;;;;;;;0.10;0.10;;;11.30;99.90;;;;;;4962302;28;20191;-80
2023/10/07 01:27:29;;;;;;;0.10;0.10;;;11.30;99.90;;;;;;4961636;28;20691;-79
2023/10/07 01:30:06;;;;;;;0.10;0.10;;;11.40;99.90;;;;;;4964714;28;21181;-79
2023/10/07 01:32:32;;;;;;;0.10;0.10;;;11.00;99.90;;;;;;4962101;28;20275;-79
2023/10/07 01:35:11;;;;;;;0.10;0.10;;;10.70;99.90;;;;;;4958516;28;20188;-79
2023/10/07 01:37:49;;;;;;;0.00;0.00;;;10.50;99.90;;;;;;4959512;28;20235;-78
2023/10/07 01:40:16;;;;;;;0.00;0.00;;;10.30;99.90;;;;;;4961462;28;20179;-79
2023/10/07 01:42:46;;;;;;;0.10;0.10;;;10.30;99.90;;;;;;4964608;28;20196;-79
2023/10/07 01:45:22;;;;;;;0.00;0.00;;;10.40;99.90;;;;;;4962856;28;20261;-79
2023/10/07 01:47:49;;;;;;;0.10;0.10;;;10.50;99.90;;;;;;4960793;28;20282;-79
2023/10/07 01:50:18;;;;;;;0.10;0.10;;;10.60;99.90;;;;;;4960682;28;20235;-80
2023/10/07 01:52:48;;;;;;;0.00;0.00;;;10.50;99.90;;;;;;4961549;28;20263;-80
2023/10/07 01:55:15;;;;;;;0.03;0.03;;;10.50;99.90;;;;;;4960332;28;20272;-80
2023/10/07 01:57:41;;;;;;;0.10;0.10;;;10.50;99.90;;;;;;4962843;28;20189;-80
2023/10/07 02:00:11;;;;;;;0.10;0.10;;;10.60;99.90;;;;;;4960727;28;20279;-80
2023/10/07 02:02:49;;;;;;;0.10;0.10;;;10.60;99.90;;;;;;4960223;28;20227;-79
2023/10/07 02:05:15;;;;;;;0.10;0.10;;;10.70;99.90;;;;;;4960467;28;20191;-79
2023/10/07 02:07:43;;;;;;;0.10;0.10;;;10.70;99.90;;;;;;4959353;28;20208;-79
2023/10/07 02:10:12;;;;;;;0.10;0.10;;;10.70;99.90;;;;;;4960186;28;20179;-79
2023/10/07 02:12:38;;;;;;;0.10;0.10;;;10.60;99.90;;;;;;4961286;28;20249;-79
2023/10/07 02:15:19;;;;;;;0.10;0.10;;;10.70;99.90;;;;;;4975807;28;20219;-79
2023/10/07 02:17:47;;;;;;;0.10;0.10;;;10.80;99.90;;;;;;4960516;28;20189;-80
2023/10/07 02:20:24;;;;;;;0.10;0.10;;;10.90;99.90;;;;;;4959969;28;20202;-79
2023/10/07 02:22:51;;;;;;;0.10;0.10;;;11.00;99.90;;;;;;4961164;28;20204;-79
2023/10/07 02:25:21;;;;;;;0.10;0.10;;;11.00;99.90;;;;;;4960505;28;20394;-79
2023/10/07 02:27:48;;;;;;;0.10;0.10;;;11.00;99.90;;;;;;4959817;28;20209;-79
2023/10/07 02:30:20;;;;;;;0.00;0.00;;;11.00;99.90;;;;;;4960525;28;20181;-79
2023/10/07 02:32:47;;;;;;;0.10;0.10;;;10.90;99.90;;;;;;4976172;28;20633;-79
2023/10/07 02:35:19;;;;;;;0.10;0.10;;;10.90;99.90;;;;;;4958744;28;20177;-79
2023/10/07 02:37:49;;;;;;;0.10;0.10;;;11.00;99.90;;;;;;4959272;28;20333;-79
2023/10/07 02:40:22;;;;;;;0.10;0.10;;;11.20;99.90;;;;;;4957893;28;20568;-80
2023/10/07 02:42:49;;;;;;;0.10;0.10;;;11.20;99.90;;;;;;4960078;28;20224;-79
2023/10/07 02:47:54;;;;;;;0.10;0.10;;;11.10;99.90;;;;;;4961018;28;20209;-79
2023/10/07 02:50:20;;;;;;;0.00;0.00;;;11.00;99.90;;;;;;4974780;28;20199;-79
2023/10/07 02:52:46;;;;;;;0.10;0.10;;;10.80;99.90;;;;;;4959389;28;20680;-79
2023/10/07 02:57:41;;;;;;;0.10;0.10;;;10.40;99.90;;;;;;4961692;28;20645;-79
2023/10/07 03:00:51;;;;;;;0.10;0.10;;;10.40;99.90;;;;;;4960436;28;20247;-79
2023/10/07 03:05:45;;;;;;;0.10;0.10;;;10.50;99.90;;;;;;4958546;28;20661;-79
2023/10/07 03:08:21;;;;;;;0.10;0.10;;;10.50;99.90;;;;;;4960564;28;20256;-79
2023/10/07 03:11:03;;;;;;;0.10;0.10;;;10.50;99.90;;;;;;4958921;28;20212;-79
2023/10/07 03:13:30;;;;;;;0.10;0.10;;;10.50;99.90;;;;;;4959960;28;20193;-79
2023/10/07 03:18:39;;;;;;;0.10;0.10;;;10.60;99.90;;;;;;4961221;28;20925;-79
2023/10/07 03:21:11;;;;;;;0.10;0.10;;;10.70;99.90;;;;;;4957581;28;20196;-79
2023/10/07 03:23:47;;;;;;;0.10;0.10;;;10.70;99.90;;;;;;4960582;28;20263;-79
2023/10/07 03:26:17;;;;;;;0.00;0.00;;;10.80;99.90;;;;;;4957466;28;20220;-79
2023/10/07 03:28:55;;;;;;;0.10;0.10;;;10.90;99.90;;;;;;4958439;28;20188;-79
2023/10/07 03:31:47;;;;;;;0.10;0.10;;;10.90;99.90;;;;;;4960119;28;20184;-79
2023/10/07 03:34:13;;;;;;;0.10;0.10;;;10.80;99.90;;;;;;4956405;28;20201;-79
2023/10/07 03:36:45;;;;;;;0.10;0.10;;;10.90;99.90;;;;;;4974441;28;20250;-79
2023/10/07 03:42:00;;;;;;;0.00;0.00;;;10.80;99.90;;;;;;4958927;28;20277;-79
2023/10/07 03:44:27;;;;;;;0.10;0.10;;;10.50;99.90;;;;;;4958063;28;20207;-79
2023/10/07 03:46:56;;;;;;;0.10;0.10;;;10.40;99.90;;;;;;4957020;28;20633;-79
2023/10/07 03:49:23;;;;;;;0.10;0.10;;;10.50;99.90;;;;;;4956310;28;20670;-79
2023/10/07 03:51:58;;;;;;;0.10;0.10;;;10.50;99.90;;;;;;4958028;28;20192;-79
2023/10/07 03:54:29;;;;;;;0.10;0.10;;;10.50;99.90;;;;;;4960007;28;20187;-80
2023/10/07 03:57:00;;;;;;;0.03;0.03;;;10.50;99.90;;;;;;4959645;28;20215;-79
2023/10/07 03:59:27;;;;;;;0.00;0.00;;;10.50;99.90;;;;;;4958840;28;20189;-79
2023/10/07 04:01:56;;;;;;;0.10;0.10;;;10.30;99.90;;;;;;4959299;28;20183;-79
2023/10/07 04:04:24;;;;;;;0.10;0.10;;;10.40;99.90;;;;;;4955633;28;20206;-79
2023/10/07 04:06:51;;;;;;;0.10;0.10;;;10.50;99.90;;;;;;4958434;28;20276;-80
2023/10/07 04:09:18;;;;;;;0.07;0.07;;;10.70;99.90;;;;;;4951006;28;20288;-79
2023/10/07 04:11:49;;;;;;;0.10;0.10;;;10.80;99.90;;;;;;4956447;28;20184;-80
2023/10/07 04:14:19;;;;;;;0.10;0.10;;;10.90;99.90;;;;;;4968944;28;20187;-79
2023/10/07 04:16:52;;;;;;;0.10;0.10;;;11.00;99.90;;;;;;4969031;28;20194;-79
2023/10/07 04:21:50;;;;;;;0.10;0.10;;;11.10;99.90;;;;;;4969174;28;20195;-80
2023/10/07 04:24:16;;;;;;;0.10;0.10;;;11.20;99.90;;;;;;4965006;28;20182;-79
2023/10/07 04:26:54;;;;;;;0.10;0.10;;;11.20;99.90;;;;;;4956679;28;20667;-78
2023/10/07 04:29:24;;;;;;;0.00;0.00;;;11.00;99.90;;;;;;4961351;28;20177;-79
2023/10/07 04:31:51;;;;;;;0.00;0.00;;;10.70;99.90;;;;;;4963367;28;20185;-80
2023/10/07 04:34:21;;;;;;;0.10;0.10;;;10.60;99.90;;;;;;4962039;28;20189;-79
2023/10/07 04:39:29;;;;;;;0.00;0.00;;;10.30;99.90;;;;;;4960707;28;20602;-80
2023/10/07 04:41:59;;;;;;;0.00;0.00;;;10.30;99.90;;;;;;4963514;28;20185;-79
2023/10/07 04:50:00;;;;;;;0.10;0.10;;;10.50;99.90;;;;;;4964375;28;20177;-79
2023/10/07 04:52:28;;;;;;;0.10;0.10;;;10.50;99.90;;;;;;4962722;28;20228;-79
2023/10/07 04:54:55;;;;;;;0.00;0.00;;;10.40;99.90;;;;;;4964342;28;20177;-79
2023/10/07 04:57:42;;;;;;;0.10;0.10;;;10.50;99.90;;;;;;4957068;28;20199;-79
2023/10/07 05:00:17;;;;;;;0.10;0.10;;;10.70;99.90;;;;;;4963835;28;20187;-79
2023/10/07 05:02:43;;;;;;;0.07;0.07;;;10.60;99.90;;;;;;4961583;28;20242;-79
2023/10/07 05:05:13;;;;;;;0.10;0.10;;;10.60;99.90;;;;;;4961693;28;20813;-80
2023/10/07 05:07:39;;;;;;;0.10;0.10;;;10.80;99.90;;;;;;4958651;28;20559;-79
2023/10/07 05:10:07;;;;;;;0.10;0.10;;;11.00;99.90;;;;;;4959531;28;20238;-80
2023/10/07 05:12:33;;;;;;;0.10;0.10;;;11.10;99.90;;;;;;4960753;28;20236;-80
2023/10/07 05:15:00;;;;;;;0.10;0.10;;;11.20;99.90;;;;;;4961269;28;20291;-80
2023/10/07 05:17:29;;;;;;;0.10;0.10;;;11.30;99.90;;;;;;4962804;28;20679;-80
2023/10/07 05:19:58;;;;;;;0.10;0.10;;;11.30;99.90;;;;;;4973418;28;20272;-80
2023/10/07 05:22:24;;;;;;;0.10;0.10;;;11.40;99.90;;;;;;4962591;28;20719;-79
2023/10/07 05:24:55;;;;;;;0.00;0.00;;;11.40;99.90;;;;;;4962276;28;20181;-79
2023/10/07 05:27:21;;;;;;;0.10;0.10;;;11.60;99.90;;;;;;4962022;28;20205;-80
2023/10/07 05:29:47;;;;;;;0.00;0.00;;;11.70;99.90;;;;;;4960824;28;20196;-80
2023/10/07 05:32:13;;;;;;;0.10;0.10;;;11.70;99.90;;;;;;4963829;28;20240;-80
2023/10/07 05:34:38;;;;;;;0.10;0.10;;;11.80;99.90;;;;;;4965698;28;20191;-81
2023/10/07 05:37:10;;;;;;;0.10;0.10;;;11.80;99.90;;;;;;4960859;28;20271;-80
2023/10/07 05:39:38;;;;;;;0.10;0.10;;;11.80;99.90;;;;;;4965476;28;20197;-80
2023/10/07 05:42:05;;;;;;;0.10;0.10;;;11.90;99.90;;;;;;4961227;28;20572;-80
2023/10/07 05:44:31;;;;;;;0.10;0.10;;;12.00;99.90;;;;;;4962333;28;20207;-79
2023/10/07 05:47:02;;;;;;;0.00;0.00;;;12.00;99.90;;;;;;4959808;28;20259;-79
2023/10/07 05:49:31;;;;;;;0.07;0.07;;;12.00;99.90;;;;;;4960158;28;20177;-79
2023/10/07 05:51:58;;;;;;;0.10;0.10;;;12.00;99.90;;;;;;4959947;28;20538;-79
2023/10/07 05:54:28;;;;;;;0.00;0.00;;;12.00;99.90;;;;;;4959709;28;20176;-79
2023/10/07 05:56:55;;;;;;;0.10;0.10;;;12.10;99.90;;;;;;4956718;28;20263;-79
2023/10/07 05:59:22;;;;;;;0.10;0.10;;;12.20;99.90;;;;;;4958584;28;20668;-80
2023/10/07 06:01:48;;;;;;;0.10;0.10;;;12.20;99.90;;;;;;4962096;28;20217;-80
2023/10/07 06:04:14;;;;;;;0.10;0.10;;;12.30;99.90;;;;;;4963406;28;20326;-80
2023/10/07 06:06:42;;;;;;;0.10;0.10;;;12.30;99.90;;;;;;4959425;28;20415;-80
2023/10/07 06:09:10;;;;;;;0.00;0.00;;;12.20;99.90;;;;;;4962575;28;20176;-80
2023/10/07 06:11:36;;;;;;;0.10;0.10;;;12.10;99.90;;;;;;4963355;28;20565;-80
2023/10/07 06:14:04;;;;;;;0.10;0.10;;;12.20;99.90;;;;;;4962894;28;20204;-80
2023/10/07 06:16:32;;;;;;;0.10;0.10;;;12.20;99.90;;;;;;4961161;28;20185;-80
2023/10/07 06:18:58;;;;;;;0.10;0.10;;;12.40;99.90;;;;;;4977035;28;20316;-80
2023/10/07 06:21:27;;;;;;;0.00;0.00;;;12.50;99.90;;;;;;4959137;28;20207;-80
2023/10/07 06:23:58;;;;;;;0.10;0.10;;;12.50;99.90;;;;;;4960371;28;20204;-80
2023/10/07 06:26:24;;;;;;;0.10;0.10;;;12.60;99.90;;;;;;4959742;28;20232;-79
2023/10/07 06:28:50;;;;;;;0.10;0.10;;;12.60;99.90;;;;;;4960077;28;20919;-79
2023/10/07 06:31:22;;;;;;;0.10;0.10;;;12.70;99.90;;;;;;4975862;28;20177;-79
2023/10/07 06:34:12;;;;;;;0.10;0.10;;;12.70;99.90;;;;;;4957288;28;20583;-79
2023/10/07 06:36:40;;;;;;;0.10;0.10;;;12.70;99.90;;;;;;4956502;28;20280;-80
2023/10/07 06:39:07;;;;;;;0.10;0.10;;;12.70;99.90;;;;;;4955645;28;20196;-79
2023/10/07 06:41:34;;;;;;;0.00;0.00;;;12.70;99.90;;;;;;4960377;28;20223;-79
2023/10/07 06:44:02;;;;;;;0.10;0.10;;;12.70;99.90;;;;;;4958170;28;20232;-80
2023/10/07 06:46:41;;;;;;;0.03;0.03;;;12.70;99.90;;;;;;4954570;28;20243;-79
2023/10/07 06:49:18;;;;;;;0.10;0.10;;;12.80;99.90;;;;;;4954072;28;20192;-80
2023/10/07 06:51:44;;;;;;;0.10;0.10;;;12.70;99.90;;;;;;4958898;28;20193;-80
2023/10/07 06:54:13;;;;;;;0.10;0.10;;;12.70;99.90;;;;;;4976939;28;20220;-80
2023/10/07 06:56:39;;;;;;;0.00;0.00;;;12.70;99.90;;;;;;4958503;28;20212;-81
2023/10/07 06:59:06;;;;;;;0.10;0.10;;;12.80;99.90;;;;;;4959477;28;20587;-81
2023/10/07 07:04:14;;;;;;;0.10;0.10;;;12.80;99.90;;;;;;4956180;28;20217;-81
2023/10/07 07:06:44;;;;;;;0.10;0.10;;;12.90;99.90;;;;;;4957831;28;21090;-81
2023/10/07 07:11:59;;;;;;;0.10;0.10;;;13.00;99.90;;;;;;4961805;28;20193;-80
2023/10/07 07:14:30;;;;;;;0.10;0.10;;;13.00;99.90;;;;;;4959441;28;20189;-79
2023/10/07 07:17:29;;;;;;;0.10;0.10;;;13.00;99.90;;;;;;4951049;28;20188;-81
2023/10/07 07:22:33;;;;;;;0.10;0.10;;;13.10;99.90;;;;;;4956973;28;21111;-79
2023/10/07 07:25:04;;;;;;;0.10;0.10;;;13.10;99.90;;;;;;4957846;28;20257;-79
2023/10/07 07:27:34;;;;;;;0.10;0.10;;;13.10;99.90;;;;;;4960136;28;20190;-79
2023/10/07 07:30:09;;;;;;;0.07;0.07;;;13.10;99.90;;;;;;4974915;28;20551;-79
2023/10/07 07:32:37;;;;;;;0.10;0.10;;;13.20;99.90;;;;;;4958552;28;20201;-79
2023/10/07 07:35:04;;;;;;;0.07;0.07;;;13.10;99.90;;;;;;4956372;28;20188;-79
2023/10/07 07:37:33;;;;;;;3.23;3.10;;;13.20;99.90;;;;;;4957319;28;20248;-79
2023/10/07 07:40:35;;;;;;;0.10;0.10;;;13.30;99.90;;;;;;4973062;28;20819;-79
2023/10/07 07:42:55;;;;;;;0.10;0.10;;;13.30;99.90;;;;;;4959561;28;20351;-80
2023/10/07 07:45:26;;;;;;;0.10;0.10;;;13.40;99.90;;;;;;4956952;28;20204;-79
2023/10/07 07:47:55;;;;;;;0.10;0.10;;;13.50;99.90;;;;;;4956780;28;21204;-79
2023/10/07 07:50:21;;;;;;;0.10;0.10;;;13.40;99.90;;;;;;4957842;28;20192;-79
2023/10/07 07:52:50;;;;;;;0.10;0.10;;;13.30;99.90;;;;;;4956929;28;20212;-79
2023/10/07 07:55:18;;;;;;;0.10;0.10;;;13.60;99.90;;;;;;4958954;28;20270;-79
2023/10/07 07:57:44;;;;;;;0.10;0.10;;;13.80;99.90;;;;;;4974823;28;20655;-79
2023/10/07 08:00:25;;;;;;;0.10;0.10;;;13.90;99.90;;;;;;4961541;28;20286;-79
2023/10/07 08:02:54;;;;;;;0.10;0.10;;;14.10;99.90;;;;;;4953956;28;20243;-79
2023/10/07 08:05:21;;;;;;;0.10;0.10;;;14.10;99.90;;;;;;4958807;28;20188;-79
2023/10/07 08:07:51;;;;;;;0.03;0.03;;;14.10;99.90;;;;;;4957899;28;20613;-79
2023/10/07 08:10:20;;;;;;;0.10;0.10;;;14.30;99.90;;;;;;4958660;28;20238;-79
2023/10/07 08:12:47;;;;;;;0.10;0.10;;;14.30;99.90;;;;;;4956795;28;20238;-80
2023/10/07 08:17:39;;;;;;;0.10;0.10;;;14.40;99.90;;;;;;4960299;28;20203;-80
2023/10/07 08:20:10;;;;;;;0.10;0.10;;;14.50;99.90;;;;;;4960821;28;20204;-79
2023/10/07 08:22:44;;;;;;;0.10;0.10;;;14.60;99.90;;;;;;4961774;28;20234;-79
2023/10/07 08:25:25;;;;;;;0.10;0.10;;;14.70;99.90;;;;;;4963189;28;20202;-79
2023/10/07 08:27:52;;;;;;;0.10;0.10;;;14.80;99.90;;;;;;4962197;28;20261;-79
2023/10/07 08:33:05;;;;;;;0.10;0.10;;;14.90;99.90;;;;;;4963282;28;20709;-79
2023/10/07 08:35:34;;;;;;;0.10;0.10;;;15.00;99.90;;;;;;4963388;28;20218;-79
2023/10/07 08:38:19;;;;;;;0.00;0.00;;;15.10;99.90;;;;;;4962997;28;20238;-79
2023/10/07 08:40:49;;;;;;;0.10;0.10;;;15.20;99.90;;;;;;4961273;28;20258;-79
2023/10/07 08:43:25;;;;;;;0.10;0.10;;;15.30;99.90;;;;;;4961572;28;20203;-79
2023/10/07 08:45:51;;;;;;;0.10;0.10;;;15.30;99.90;;;;;;4960352;28;20197;-79
2023/10/07 08:48:17;;;;;;;0.10;0.10;;;15.20;99.90;;;;;;4967919;28;20194;-79
2023/10/07 08:50:58;;;;;;;0.10;0.10;;;15.20;99.90;;;;;;4968202;28;20199;-80
2023/10/07 08:53:24;;;;;;;0.10;0.10;;;15.20;99.90;;;;;;4983427;28;20655;-79
2023/10/07 08:55:56;;;;;;;0.10;0.10;;;15.10;99.90;;;;;;4959134;28;20188;-78
2023/10/07 08:58:26;;;;;;;0.10;0.10;;;15.20;99.90;;;;;;4960072;28;20199;-78
2023/10/07 09:00:52;;;;;;;0.10;0.10;;;15.20;99.90;;;;;;4960575;28;20268;-79
2023/10/07 09:03:19;;;;;;;0.10;0.10;;;15.30;99.90;;;;;;4960303;28;20232;-80
2023/10/07 09:05:48;;;;;;;0.57;0.57;;;15.40;99.90;;;;;;4960705;28;20215;-79
2023/10/07 09:08:15;;;;;;;0.10;0.10;;;15.50;99.90;;;;;;4963849;28;20207;-79
2023/10/07 09:10:45;;;;;;;0.10;0.10;;;15.50;99.90;;;;;;4958380;28;20211;-79
2023/10/07 09:13:19;;;;;;;0.10;0.10;;;15.60;99.90;;;;;;4961184;28;20208;-79
2023/10/07 09:15:52;;;;;;;0.10;0.10;;;15.70;99.90;;;;;;4960484;28;20187;-80
2023/10/07 09:18:22;;;;;;;0.10;0.10;;;15.80;99.90;;;;;;4956707;28;20191;-80
2023/10/07 09:20:50;;;;;;;0.10;0.10;;;15.80;99.90;;;;;;4975042;28;20186;-80
2023/10/07 09:23:19;;;;;;;0.10;0.10;;;15.90;99.90;;;;;;4960634;28;20211;-79
2023/10/07 09:25:52;;;;;;;0.10;0.10;;;15.90;99.90;;;;;;4957144;28;20192;-80
2023/10/07 09:28:36;;;;;;;0.10;0.10;;;16.00;99.90;;;;;;4960193;28;20593;-79
2023/10/07 09:31:08;;;;;;;0.10;0.10;;;16.10;99.90;;;;;;4963235;28;20219;-80
2023/10/07 09:33:37;;;;;;;0.10;0.10;;;16.20;99.90;;;;;;4958964;28;20347;-80
2023/10/07 09:39:05;;;;;;;0.10;0.10;;;16.40;99.90;;;;;;4966141;28;20199;-80
2023/10/07 09:41:32;;;;;;;0.10;0.10;;;16.60;99.90;;;;;;4963385;28;20275;-81
2023/10/07 09:44:00;;;;;;;0.10;0.10;;;16.80;99.90;;;;;;4961861;28;20275;-81
2023/10/07 09:46:27;;;;;;;0.10;0.10;;;17.00;99.90;;;;;;4960890;28;20260;-81
2023/10/07 09:48:54;;;;;;;2.30;2.20;;;17.10;99.90;;;;;;4962216;28;20189;-80
2023/10/07 09:51:28;;;;;;;0.10;0.10;;;17.20;99.90;;;;;;4963262;28;20181;-80
2023/10/07 09:54:27;;;;;;;0.10;0.10;;;17.30;99.90;;;;;;4958426;28;20603;-82
2023/10/07 09:57:22;;;;;;;0.10;0.10;;;17.30;99.90;;;;;;4961009;28;20217;-81
2023/10/07 09:59:56;;;;;;;0.10;0.10;;;17.20;99.90;;;;;;4958985;28;20600;-80
2023/10/07 10:02:59;;;;;;;0.10;0.10;;;17.10;99.90;;;;;;4959332;28;20238;-81
2023/10/07 10:05:47;;;;;;;0.10;0.10;;;17.20;99.90;;;;;;4960036;28;20196;-81
2023/10/07 10:08:19;;;;;;;0.10;0.10;;;17.30;99.90;;;;;;4960058;28;20227;-81
2023/10/07 10:10:49;;;;;;;0.10;0.10;;;17.40;99.90;;;;;;4960771;28;20680;-81
2023/10/07 10:13:29;;;;;;;0.10;0.10;;;17.50;99.90;;;;;;4957402;28;20209;-81
2023/10/07 10:16:00;;;;;;;0.10;0.10;;;17.70;99.90;;;;;;4959829;28;20180;-81
2023/10/07 10:18:40;;;;;;;0.10;0.10;;;17.70;99.90;;;;;;4959939;28;20173;-81
2023/10/07 10:21:12;;;;;;;0.10;0.10;;;17.60;99.90;;;;;;4966303;28;20738;-81
2023/10/07 10:23:44;;;;;;;0.10;0.10;;;17.60;99.90;;;;;;4967473;28;20212;-82
2023/10/07 10:26:14;;;;;;;0.10;0.10;;;17.60;99.90;;;;;;4975333;28;20248;-81
2023/10/07 10:28:41;;;;;;;0.10;0.10;;;17.50;99.90;;;;;;4976224;28;20212;-81
2023/10/07 10:31:19;;;;;;;0.10;0.10;;;17.60;99.90;;;;;;4970473;28;20261;-80
2023/10/07 10:33:49;;;;;;;0.10;0.10;;;17.80;99.90;;;;;;4964729;28;20200;-80
2023/10/07 10:36:18;;;;;;;0.10;0.10;;;18.20;99.90;;;;;;4960659;28;20199;-80
2023/10/07 10:38:45;;;;;;;0.10;0.10;;;18.10;99.90;;;;;;4963923;28;20206;-80
2023/10/07 10:41:11;;;;;;;0.10;0.10;;;18.20;99.90;;;;;;4959976;28;20279;-80
2023/10/07 10:43:37;;;;;;;0.10;0.10;;;18.30;99.90;;;;;;4961775;28;20217;-80
2023/10/07 10:46:06;;;;;;;0.10;0.10;;;18.30;99.90;;;;;;4961278;28;20227;-79
2023/10/07 10:48:34;;;;;;;0.10;0.10;;;18.40;99.90;;;;;;4962405;28;20202;-79
2023/10/07 10:51:05;;;;;;;0.10;0.10;;;18.50;99.90;;;;;;4957931;28;20237;-81
2023/10/07 10:53:32;;;;;;;0.10;0.10;;;18.60;99.90;;;;;;4978616;28;20196;-79
2023/10/07 10:55:57;;;;;;;0.10;0.10;;;18.60;99.90;;;;;;4961669;28;21069;-80
2023/10/07 10:58:23;;;;;;;0.10;0.10;;;18.60;99.90;;;;;;4961313;28;20189;-80
2023/10/07 11:00:51;;;;;;;0.10;0.10;;;18.70;99.90;;;;;;4962951;28;20193;-79
2023/10/07 11:03:20;;;;;;;0.10;0.10;;;18.90;99.90;;;;;;4959319;28;20307;-80
2023/10/07 11:05:53;;;;;;;0.10;0.10;;;19.00;99.90;;;;;;4962478;28;20194;-80
2023/10/07 11:08:23;;;;;;;0.10;0.10;;;18.80;99.90;;;;;;4962537;28;20191;-81
2023/10/07 11:10:58;;;;;;;0.10;0.10;;;18.80;99.90;;;;;;4962410;28;20200;-80
2023/10/07 11:13:25;;;;;;;0.10;0.10;;;18.80;99.90;;;;;;4959523;28;20216;-79
2023/10/07 11:15:58;;;;;;;0.10;0.10;;;18.80;99.90;;;;;;4962548;28;20185;-80
2023/10/07 11:18:25;;;;;;;0.10;0.10;;;19.00;99.90;;;;;;4958464;28;20212;-80
2023/10/07 11:20:51;;;;;;;0.10;0.10;;;19.10;99.90;;;;;;4960966;28;20181;-80
2023/10/07 11:23:17;;;;;;;0.10;0.10;;;19.40;99.90;;;;;;4958360;28;21216;-80
2023/10/07 11:25:43;;;;;;;0.10;0.10;;;19.70;99.90;;;;;;4960459;28;20199;-81
2023/10/07 11:28:09;;;;;;;0.10;0.10;;;20.00;99.90;;;;;;4961800;28;20217;-80
2023/10/07 11:30:46;;;;;;;0.10;0.10;;;20.00;99.90;;;;;;4962894;28;20184;-81
2023/10/07 11:33:16;;;;;;;0.10;0.10;;;19.90;99.90;;;;;;4962544;28;20809;-81
2023/10/07 11:35:42;;;;;;;0.10;0.10;;;19.80;99.90;;;;;;4961030;28;20192;-81
2023/10/07 11:38:09;;;;;;;0.10;0.10;;;20.00;99.90;;;;;;4958661;28;20202;-80
2023/10/07 11:40:34;;;;;;;0.10;0.10;;;20.10;99.90;;;;;;4959928;28;20223;-80
2023/10/07 11:43:09;;;;;;;0.10;0.10;;;20.10;99.90;;;;;;4958998;28;20235;-80
2023/10/07 11:45:39;;;;;;;0.10;0.10;;;20.20;99.90;;;;;;4962745;28;20204;-81
2023/10/07 11:48:08;;;;;;;0.10;0.10;;;20.30;99.90;;;;;;4958965;28;20272;-80
2023/10/07 11:50:35;;;;;;;0.10;0.10;;;20.50;99.90;;;;;;4962549;28;20196;-80
2023/10/07 11:53:02;;;;;;;0.10;0.10;;;20.50;99.90;;;;;;4961316;28;20209;-80
2023/10/07 11:55:29;;;;;;;0.10;0.10;;;20.60;99.90;;;;;;4962539;28;20200;-80
2023/10/07 11:57:54;;;;;;;0.10;0.10;;;20.50;99.90;;;;;;4962220;28;20221;-80
2023/10/07 12:00:23;;;;;;;0.10;0.10;;;20.50;99.90;;;;;;4960955;28;20221;-80
2023/10/07 12:02:50;;;;;;;0.10;0.10;;;20.60;99.90;;;;;;4962010;28;20248;-80
2023/10/07 12:05:15;;;;;;;0.10;0.10;;;20.60;99.90;;;;;;4962839;28;20199;-81
2023/10/07 12:07:42;;;;;;;0.10;0.10;;;20.60;99.90;;;;;;4962700;28;20298;-81
2023/10/07 12:10:15;;;;;;;0.10;0.10;;;20.70;99.90;;;;;;4962877;28;20303;-81
2023/10/07 12:12:42;;;;;;;0.10;0.10;;;20.80;99.90;;;;;;4962893;28;20212;-81
2023/10/07 12:15:18;;;;;;;0.10;0.10;;;20.70;99.90;;;;;;4963892;28;20188;-81
2023/10/07 12:17:44;;;;;;;0.10;0.10;;;20.60;99.90;;;;;;4965405;28;20180;-80
2023/10/07 12:20:13;;;;;;;0.10;0.10;;;20.80;99.90;;;;;;4962648;28;20189;-80
2023/10/07 12:22:42;;;;;;;0.10;0.10;;;20.80;99.90;;;;;;4964474;28;20215;-80
2023/10/07 12:25:18;;;;;;;0.10;0.10;;;21.00;99.90;;;;;;4962388;28;20189;-81
2023/10/07 12:27:48;;;;;;;0.10;0.10;;;21.10;99.90;;;;;;4965927;28;21239;-81
2023/10/07 12:30:20;;;;;;;0.10;0.10;;;21.20;99.90;;;;;;4963686;28;20287;-81
2023/10/07 12:32:48;;;;;;;0.10;0.10;;;21.20;99.90;;;;;;4963896;28;20676;-80
2023/10/07 12:35:15;;;;;;;0.10;0.10;;;21.40;99.90;;;;;;4961000;28;20192;-80
2023/10/07 12:37:46;;;;;;;0.10;0.10;;;21.40;99.90;;;;;;4964297;28;20188;-81
2023/10/07 12:40:17;;;;;;;0.10;0.10;;;21.50;99.90;;;;;;4961849;28;20247;-81
2023/10/07 12:42:43;;;;;;;0.10;0.10;;;21.60;99.90;;;;;;4963795;28;20212;-81
2023/10/07 12:45:10;;;;;;;0.10;0.10;;;21.60;99.90;;;;;;4961588;28;20248;-80
2023/10/07 12:47:37;;;;;;;0.10;0.10;;;21.60;99.90;;;;;;4963185;28;20757;-80
2023/10/07 12:52:52;;;;;;;0.10;0.10;;;21.80;99.90;;;;;;4962056;28;20282;-81
2023/10/07 12:55:18;;;;;;;0.10;0.10;;;21.70;99.90;;;;;;4960535;28;20189;-81
2023/10/07 12:57:44;;;;;;;0.10;0.10;;;21.80;99.90;;;;;;4962676;28;20203;-81
2023/10/07 13:00:21;;;;;;;0.10;0.10;;;21.90;99.90;;;;;;4960453;28;20203;-81
2023/10/07 13:02:52;;;;;;;0.10;0.10;;;21.90;99.90;;;;;;4962446;28;20234;-81
2023/10/07 13:05:18;;;;;;;0.10;0.10;;;22.00;99.90;;;;;;4961558;28;20185;-81
2023/10/07 13:07:45;;;;;;;0.10;0.10;;;22.00;99.90;;;;;;4961376;28;20205;-81
2023/10/07 13:10:11;;;;;;;0.10;0.10;;;22.00;99.90;;;;;;4962503;28;20205;-80
2023/10/07 13:12:37;;;;;;;0.10;0.10;;;22.30;99.90;;;;;;4960632;28;20216;-80
2023/10/07 13:15:14;;;;;;;0.10;0.10;;;22.30;99.90;;;;;;4960450;28;20558;-80
2023/10/07 13:17:45;;;;;;;0.10;0.10;;;22.20;99.90;;;;;;4960179;28;20177;-81
2023/10/07 13:20:21;;;;;;;0.10;0.10;;;22.10;99.90;;;;;;4961656;28;20185;-82
2023/10/07 13:22:50;;;;;;;0.10;0.10;;;22.00;99.90;;;;;;4959977;28;20244;-81
2023/10/07 13:25:19;;;;;;;0.10;0.10;;;22.20;99.90;;;;;;4962975;28;22158;-81
2023/10/07 13:27:46;;;;;;;0.10;0.10;;;22.20;99.90;;;;;;4962489;28;20775;-81
2023/10/07 13:30:12;;;;;;;0.67;0.67;;;22.40;99.90;;;;;;4958021;28;20235;-80
2023/10/07 13:32:46;;;;;;;0.10;0.10;;;22.40;99.90;;;;;;4960487;28;20865;-80
2023/10/07 13:35:15;;;;;;;0.10;0.10;;;22.50;99.90;;;;;;4955821;28;20171;-81
2023/10/07 13:37:44;;;;;;;0.10;0.10;;;22.60;99.90;;;;;;4962054;28;20746;-80
2023/10/07 13:40:17;;;;;;;0.10;0.10;;;22.60;99.90;;;;;;4961046;28;20212;-81
2023/10/07 13:42:47;;;;;;;0.20;0.20;;;22.70;99.90;;;;;;4961619;28;20248;-81
2023/10/07 13:45:17;;;;;;;0.10;0.10;;;22.70;99.90;;;;;;4962953;28;20192;-80
2023/10/07 13:47:44;;;;;;;0.10;0.10;;;22.80;99.90;;;;;;4958844;28;21779;-80
2023/10/07 13:50:14;;;;;;;0.10;0.10;;;22.80;99.90;;;;;;4957863;28;20653;-81
2023/10/07 13:52:50;;;;;;;0.10;0.10;;;22.90;99.90;;;;;;4965311;28;20231;-81
2023/10/07 13:55:33;;;;;;;0.10;0.10;;;22.90;99.90;;;;;;4962741;28;20557;-82
2023/10/07 13:58:04;;;;;;;0.10;0.10;;;22.90;99.90;;;;;;4982315;28;20200;-81